sensor_id;sensor_type;location;lat;lon;timestamp;temperature;humidity
6244;DHT22;3155;49.940;8.450;2023-05-29T00:00:47;13.90;99.90
6244;DHT22;3155;49.940;8.450;2023-05-29T00:03:17;14.00;99.90
6244;DHT22;3155;49.940;8.450;2023-05-29T00:05:48;14.10;99.90
6244;DHT22;3155;49.940;8.450;2023-05-29T00:08:19;14.20;99.90
6244;DHT22;3155;49.940;8.450;2023-05-29T00:10:46;14.30;99.90
6244;DHT22;3155;49.940;8.450;2023-05-29T00:13:13;14.40;99.90
6244;DHT22;3155;49.940;8.450;2023-05-29T00:15:40;14.40;99.90
6244;DHT22;3155;49.940;8.450;2023-05-29T00:18:11;14.40;99.90
6244;DHT22;3155;49.940;8.450;2023-05-29T00:20:38;14.40;99.90
6244;DHT22;3155;49.940;8.450;2023-05-29T00:23:28;14.40;99.90
6244;DHT22;3155;49.940;8.450;2023-05-29T00:25:59;14.40;99.90
6244;DHT22;3155;49.940;8.450;2023-05-29T00:28:25;14.40;99.90
6244;DHT22;3155;49.940;8.450;2023-05-29T00:30:52;14.40;99.90
6244;DHT22;3155;49.940;8.450;2023-05-29T00:33:19;14.40;99.90
6244;DHT22;3155;49.940;8.450;2023-05-29T00:35:50;14.40;99.90
6244;DHT22;3155;49.940;8.450;2023-05-29T00:38:18;14.40;99.90
6244;DHT22;3155;49.940;8.450;2023-05-29T00:40:44;14.40;99.90
6244;DHT22;3155;49.940;8.450;2023-05-29T00:43:11;14.30;99.90
6244;DHT22;3155;49.940;8.450;2023-05-29T00:45:38;14.30;99.90
6244;DHT22;3155;49.940;8.450;2023-05-29T00:48:07;14.20;99.90
6244;DHT22;3155;49.940;8.450;2023-05-29T00:50:34;14.20;99.90
6244;DHT22;3155;49.940;8.450;2023-05-29T00:53:01;14.10;99.90
6244;DHT22;3155;49.940;8.450;2023-05-29T00:55:29;14.10;99.90
6244;DHT22;3155;49.940;8.450;2023-05-29T00:57:56;14.10;99.90
6244;DHT22;3155;49.940;8.450;2023-05-29T01:00:26;14.10;99.90
6244;DHT22;3155;49.940;8.450;2023-05-29T01:02:53;14.10;99.90
6244;DHT22;3155;49.940;8.450;2023-05-29T01:05:20;14.00;99.90
6244;DHT22;3155;49.940;8.450;2023-05-29T01:07:50;14.00;99.90
6244;DHT22;3155;49.940;8.450;2023-05-29T01:10:17;14.00;99.90
6244;DHT22;3155;49.940;8.450;2023-05-29T01:12:50;14.00;99.90
6244;DHT22;3155;49.940;8.450;2023-05-29T01:15:28;14.00;99.90
6244;DHT22;3155;49.940;8.450;2023-05-29T01:18:13;13.90;99.90
6244;DHT22;3155;49.940;8.450;2023-05-29T01:20:52;13.80;99.90
6244;DHT22;3155;49.940;8.450;2023-05-29T01:23:23;13.90;99.90
6244;DHT22;3155;49.940;8.450;2023-05-29T01:26:21;13.90;99.90
6244;DHT22;3155;49.940;8.450;2023-05-29T01:28:52;13.90;99.90
6244;DHT22;3155;49.940;8.450;2023-05-29T01:31:23;13.80;99.90
6244;DHT22;3155;49.940;8.450;2023-05-29T01:33:57;13.70;99.90
6244;DHT22;3155;49.940;8.450;2023-05-29T01:36:26;13.60;99.90
6244;DHT22;3155;49.940;8.450;2023-05-29T01:38:54;13.50;99.90
6244;DHT22;3155;49.940;8.450;2023-05-29T01:41:23;13.40;99.90
6244;DHT22;3155;49.940;8.450;2023-05-29T01:43:51;13.40;99.90
6244;DHT22;3155;49.940;8.450;2023-05-29T01:46:19;13.30;99.90
6244;DHT22;3155;49.940;8.450;2023-05-29T01:48:47;13.20;99.90
6244;DHT22;3155;49.940;8.450;2023-05-29T01:51:13;13.10;99.90
6244;DHT22;3155;49.940;8.450;2023-05-29T01:53:43;13.10;99.90
6244;DHT22;3155;49.940;8.450;2023-05-29T01:56:10;13.00;99.90
6244;DHT22;3155;49.940;8.450;2023-05-29T01:58:38;13.00;99.90
6244;DHT22;3155;49.940;8.450;2023-05-29T02:01:07;13.10;99.90
6244;DHT22;3155;49.940;8.450;2023-05-29T02:03:34;13.10;99.90
6244;DHT22;3155;49.940;8.450;2023-05-29T02:06:01;13.20;99.90
6244;DHT22;3155;49.940;8.450;2023-05-29T02:08:31;13.30;99.90
6244;DHT22;3155;49.940;8.450;2023-05-29T02:10:58;13.20;99.90
6244;DHT22;3155;49.940;8.450;2023-05-29T02:13:25;13.20;99.90
6244;DHT22;3155;49.940;8.450;2023-05-29T02:15:51;13.10;99.90
6244;DHT22;3155;49.940;8.450;2023-05-29T02:18:18;13.10;99.90
6244;DHT22;3155;49.940;8.450;2023-05-29T02:20:45;13.10;99.90
6244;DHT22;3155;49.940;8.450;2023-05-29T02:23:13;13.10;99.90
6244;DHT22;3155;49.940;8.450;2023-05-29T02:25:40;13.00;99.90
6244;DHT22;3155;49.940;8.450;2023-05-29T02:28:06;13.00;99.90
6244;DHT22;3155;49.940;8.450;2023-05-29T02:30:34;12.90;99.90
6244;DHT22;3155;49.940;8.450;2023-05-29T02:33:01;12.80;99.90
6244;DHT22;3155;49.940;8.450;2023-05-29T02:35:28;12.70;99.90
6244;DHT22;3155;49.940;8.450;2023-05-29T02:37:55;12.60;99.90
6244;DHT22;3155;49.940;8.450;2023-05-29T02:40:22;12.60;99.90
6244;DHT22;3155;49.940;8.450;2023-05-29T02:42:52;12.60;99.90
6244;DHT22;3155;49.940;8.450;2023-05-29T02:45:19;12.70;99.90
6244;DHT22;3155;49.940;8.450;2023-05-29T02:47:46;12.70;99.90
6244;DHT22;3155;49.940;8.450;2023-05-29T02:50:12;12.80;99.90
6244;DHT22;3155;49.940;8.450;2023-05-29T02:52:41;12.90;99.90
6244;DHT22;3155;49.940;8.450;2023-05-29T02:55:08;12.90;99.90
6244;DHT22;3155;49.940;8.450;2023-05-29T02:57:35;12.80;99.90
6244;DHT22;3155;49.940;8.450;2023-05-29T03:00:02;12.80;99.90
6244;DHT22;3155;49.940;8.450;2023-05-29T03:02:32;12.80;99.90
6244;DHT22;3155;49.940;8.450;2023-05-29T03:05:03;12.70;99.90
6244;DHT22;3155;49.940;8.450;2023-05-29T03:07:30;12.80;99.90
6244;DHT22;3155;49.940;8.450;2023-05-29T03:09:57;12.80;99.90
6244;DHT22;3155;49.940;8.450;2023-05-29T03:12:26;12.80;99.90
6244;DHT22;3155;49.940;8.450;2023-05-29T03:14:54;12.80;99.90
6244;DHT22;3155;49.940;8.450;2023-05-29T03:17:23;12.80;99.90
6244;DHT22;3155;49.940;8.450;2023-05-29T03:19:50;12.90;99.90
6244;DHT22;3155;49.940;8.450;2023-05-29T03:22:18;12.90;99.90
6244;DHT22;3155;49.940;8.450;2023-05-29T03:24:44;13.00;99.90
6244;DHT22;3155;49.940;8.450;2023-05-29T03:27:12;13.00;99.90
6244;DHT22;3155;49.940;8.450;2023-05-29T03:29:39;12.90;99.90
6244;DHT22;3155;49.940;8.450;2023-05-29T03:32:06;13.00;99.90
6244;DHT22;3155;49.940;8.450;2023-05-29T03:34:33;13.00;99.90
6244;DHT22;3155;49.940;8.450;2023-05-29T03:37:00;13.10;99.90
6244;DHT22;3155;49.940;8.450;2023-05-29T03:39:27;13.20;99.90
6244;DHT22;3155;49.940;8.450;2023-05-29T03:41:54;13.30;99.90
6244;DHT22;3155;49.940;8.450;2023-05-29T03:44:21;13.40;99.90
6244;DHT22;3155;49.940;8.450;2023-05-29T03:46:48;13.50;99.90
6244;DHT22;3155;49.940;8.450;2023-05-29T03:49:15;13.50;99.90
6244;DHT22;3155;49.940;8.450;2023-05-29T03:51:42;13.50;99.90
6244;DHT22;3155;49.940;8.450;2023-05-29T03:54:09;13.50;99.90
6244;DHT22;3155;49.940;8.450;2023-05-29T03:56:35;13.60;99.90
6244;DHT22;3155;49.940;8.450;2023-05-29T03:59:02;13.60;99.90
6244;DHT22;3155;49.940;8.450;2023-05-29T04:01:29;13.70;99.90
6244;DHT22;3155;49.940;8.450;2023-05-29T04:03:56;13.70;99.90
6244;DHT22;3155;49.940;8.450;2023-05-29T04:06:23;13.80;99.90
6244;DHT22;3155;49.940;8.450;2023-05-29T04:08:50;13.90;99.90
6244;DHT22;3155;49.940;8.450;2023-05-29T04:11:17;14.00;99.90
6244;DHT22;3155;49.940;8.450;2023-05-29T04:13:43;14.00;99.90
6244;DHT22;3155;49.940;8.450;2023-05-29T04:16:10;14.10;99.90
6244;DHT22;3155;49.940;8.450;2023-05-29T04:18:37;14.10;99.90
6244;DHT22;3155;49.940;8.450;2023-05-29T04:21:09;14.20;99.90
6244;DHT22;3155;49.940;8.450;2023-05-29T04:23:39;14.20;99.90
6244;DHT22;3155;49.940;8.450;2023-05-29T04:26:05;14.20;99.90
6244;DHT22;3155;49.940;8.450;2023-05-29T04:28:32;14.20;99.90
6244;DHT22;3155;49.940;8.450;2023-05-29T04:30:59;14.20;99.90
6244;DHT22;3155;49.940;8.450;2023-05-29T04:33:27;14.30;99.90
6244;DHT22;3155;49.940;8.450;2023-05-29T04:35:55;14.30;99.90
6244;DHT22;3155;49.940;8.450;2023-05-29T04:38:21;14.40;99.90
6244;DHT22;3155;49.940;8.450;2023-05-29T04:40:52;14.60;99.90
6244;DHT22;3155;49.940;8.450;2023-05-29T04:43:24;15.10;99.90
6244;DHT22;3155;49.940;8.450;2023-05-29T04:45:53;15.70;99.90
6244;DHT22;3155;49.940;8.450;2023-05-29T04:48:20;16.20;99.90
6244;DHT22;3155;49.940;8.450;2023-05-29T04:50:46;16.50;99.90
6244;DHT22;3155;49.940;8.450;2023-05-29T04:53:15;16.80;99.90
6244;DHT22;3155;49.940;8.450;2023-05-29T04:55:44;17.00;99.90
6244;DHT22;3155;49.940;8.450;2023-05-29T04:58:10;17.20;99.90
6244;DHT22;3155;49.940;8.450;2023-05-29T05:00:38;17.30;99.90
6244;DHT22;3155;49.940;8.450;2023-05-29T05:03:05;17.50;99.90
6244;DHT22;3155;49.940;8.450;2023-05-29T05:05:32;17.60;99.90
6244;DHT22;3155;49.940;8.450;2023-05-29T05:07:59;17.60;99.90
6244;DHT22;3155;49.940;8.450;2023-05-29T05:10:26;17.80;99.90
6244;DHT22;3155;49.940;8.450;2023-05-29T05:12:53;18.10;99.90
6244;DHT22;3155;49.940;8.450;2023-05-29T05:15:20;18.30;99.90
6244;DHT22;3155;49.940;8.450;2023-05-29T05:17:48;18.50;99.90
6244;DHT22;3155;49.940;8.450;2023-05-29T05:20:15;18.60;99.90
6244;DHT22;3155;49.940;8.450;2023-05-29T05:22:43;18.70;99.90
6244;DHT22;3155;49.940;8.450;2023-05-29T05:25:09;18.80;99.90
6244;DHT22;3155;49.940;8.450;2023-05-29T05:27:36;18.90;99.90
6244;DHT22;3155;49.940;8.450;2023-05-29T05:30:03;18.90;99.90
6244;DHT22;3155;49.940;8.450;2023-05-29T05:32:30;19.00;99.90
6244;DHT22;3155;49.940;8.450;2023-05-29T05:34:57;19.10;99.90
6244;DHT22;3155;49.940;8.450;2023-05-29T05:37:24;19.40;99.90
6244;DHT22;3155;49.940;8.450;2023-05-29T05:39:51;19.40;99.90
6244;DHT22;3155;49.940;8.450;2023-05-29T05:42:20;19.40;99.90
6244;DHT22;3155;49.940;8.450;2023-05-29T05:44:46;19.70;99.90
6244;DHT22;3155;49.940;8.450;2023-05-29T05:47:14;19.80;99.90
6244;DHT22;3155;49.940;8.450;2023-05-29T05:49:41;19.80;99.90
6244;DHT22;3155;49.940;8.450;2023-05-29T05:52:07;19.70;99.90
6244;DHT22;3155;49.940;8.450;2023-05-29T05:54:34;19.70;99.90
6244;DHT22;3155;49.940;8.450;2023-05-29T05:57:01;19.90;99.90
6244;DHT22;3155;49.940;8.450;2023-05-29T05:59:29;20.20;99.90
6244;DHT22;3155;49.940;8.450;2023-05-29T06:01:57;20.00;99.90
6244;DHT22;3155;49.940;8.450;2023-05-29T06:04:24;20.00;99.90
6244;DHT22;3155;49.940;8.450;2023-05-29T06:06:51;20.10;99.90
6244;DHT22;3155;49.940;8.450;2023-05-29T06:09:21;20.20;99.90
6244;DHT22;3155;49.940;8.450;2023-05-29T06:11:49;20.20;99.90
6244;DHT22;3155;49.940;8.450;2023-05-29T06:14:18;20.80;99.90
6244;DHT22;3155;49.940;8.450;2023-05-29T06:16:46;21.40;99.90
6244;DHT22;3155;49.940;8.450;2023-05-29T06:19:14;21.30;99.90
6244;DHT22;3155;49.940;8.450;2023-05-29T06:21:44;21.30;99.90
6244;DHT22;3155;49.940;8.450;2023-05-29T06:24:13;21.10;99.90
6244;DHT22;3155;49.940;8.450;2023-05-29T06:26:40;21.60;99.90
6244;DHT22;3155;49.940;8.450;2023-05-29T06:29:07;21.90;99.90
6244;DHT22;3155;49.940;8.450;2023-05-29T06:31:34;22.30;99.90
6244;DHT22;3155;49.940;8.450;2023-05-29T06:34:01;22.20;99.90
6244;DHT22;3155;49.940;8.450;2023-05-29T06:36:28;22.70;99.90
6244;DHT22;3155;49.940;8.450;2023-05-29T06:38:55;23.20;99.90
6244;DHT22;3155;49.940;8.450;2023-05-29T06:41:21;22.70;99.90
6244;DHT22;3155;49.940;8.450;2023-05-29T06:43:48;22.80;99.90
6244;DHT22;3155;49.940;8.450;2023-05-29T06:46:15;22.80;99.90
6244;DHT22;3155;49.940;8.450;2023-05-29T06:48:42;23.20;99.90
6244;DHT22;3155;49.940;8.450;2023-05-29T06:51:09;23.30;99.90
6244;DHT22;3155;49.940;8.450;2023-05-29T06:53:41;23.30;99.90
6244;DHT22;3155;49.940;8.450;2023-05-29T06:56:08;23.30;99.90
6244;DHT22;3155;49.940;8.450;2023-05-29T06:58:38;23.30;99.90
6244;DHT22;3155;49.940;8.450;2023-05-29T07:01:09;23.30;99.90
6244;DHT22;3155;49.940;8.450;2023-05-29T07:03:35;22.90;99.90
6244;DHT22;3155;49.940;8.450;2023-05-29T07:06:04;23.10;99.90
6244;DHT22;3155;49.940;8.450;2023-05-29T07:08:31;23.40;99.90
6244;DHT22;3155;49.940;8.450;2023-05-29T07:10:57;23.70;99.90
6244;DHT22;3155;49.940;8.450;2023-05-29T07:13:26;23.90;99.90
6244;DHT22;3155;49.940;8.450;2023-05-29T07:15:53;23.60;99.90
6244;DHT22;3155;49.940;8.450;2023-05-29T07:18:20;23.50;99.90
6244;DHT22;3155;49.940;8.450;2023-05-29T07:20:47;23.50;99.90
6244;DHT22;3155;49.940;8.450;2023-05-29T07:23:14;23.70;99.90
6244;DHT22;3155;49.940;8.450;2023-05-29T07:25:40;24.00;99.90
6244;DHT22;3155;49.940;8.450;2023-05-29T07:28:07;24.20;99.90
6244;DHT22;3155;49.940;8.450;2023-05-29T07:30:47;24.60;99.90
6244;DHT22;3155;49.940;8.450;2023-05-29T07:33:14;24.50;99.90
6244;DHT22;3155;49.940;8.450;2023-05-29T07:35:41;24.60;99.90
6244;DHT22;3155;49.940;8.450;2023-05-29T07:38:10;25.00;99.90
6244;DHT22;3155;49.940;8.450;2023-05-29T07:40:37;24.80;99.90
6244;DHT22;3155;49.940;8.450;2023-05-29T07:43:07;25.10;99.90
6244;DHT22;3155;49.940;8.450;2023-05-29T07:45:36;25.20;99.90
6244;DHT22;3155;49.940;8.450;2023-05-29T07:48:13;24.60;99.90
6244;DHT22;3155;49.940;8.450;2023-05-29T07:50:42;24.80;99.90
6244;DHT22;3155;49.940;8.450;2023-05-29T07:53:09;24.80;99.90
6244;DHT22;3155;49.940;8.450;2023-05-29T07:55:39;24.90;99.90
6244;DHT22;3155;49.940;8.450;2023-05-29T07:58:08;24.90;99.90
6244;DHT22;3155;49.940;8.450;2023-05-29T08:00:40;24.80;99.90
6244;DHT22;3155;49.940;8.450;2023-05-29T08:03:06;24.90;99.90
6244;DHT22;3155;49.940;8.450;2023-05-29T08:05:33;25.30;99.90
6244;DHT22;3155;49.940;8.450;2023-05-29T08:08:00;25.30;99.90
6244;DHT22;3155;49.940;8.450;2023-05-29T08:10:31;25.50;99.90
6244;DHT22;3155;49.940;8.450;2023-05-29T08:12:58;25.60;99.90
6244;DHT22;3155;49.940;8.450;2023-05-29T08:15:28;25.80;99.90
6244;DHT22;3155;49.940;8.450;2023-05-29T08:17:54;25.80;99.90
6244;DHT22;3155;49.940;8.450;2023-05-29T08:20:21;26.00;99.90
6244;DHT22;3155;49.940;8.450;2023-05-29T08:22:48;25.80;99.90
6244;DHT22;3155;49.940;8.450;2023-05-29T08:25:19;25.50;99.90
6244;DHT22;3155;49.940;8.450;2023-05-29T08:27:48;25.70;99.90
6244;DHT22;3155;49.940;8.450;2023-05-29T08:30:15;25.60;99.90
6244;DHT22;3155;49.940;8.450;2023-05-29T08:32:42;25.40;99.90
6244;DHT22;3155;49.940;8.450;2023-05-29T08:35:09;25.60;99.90
6244;DHT22;3155;49.940;8.450;2023-05-29T08:37:36;25.50;99.90
6244;DHT22;3155;49.940;8.450;2023-05-29T08:40:03;25.70;99.90
6244;DHT22;3155;49.940;8.450;2023-05-29T08:45:43;25.90;99.90
6244;DHT22;3155;49.940;8.450;2023-05-29T08:48:11;25.50;99.90
6244;DHT22;3155;49.940;8.450;2023-05-29T08:50:44;25.90;99.90
6244;DHT22;3155;49.940;8.450;2023-05-29T08:53:14;26.60;99.90
6244;DHT22;3155;49.940;8.450;2023-05-29T08:55:44;26.50;99.90
6244;DHT22;3155;49.940;8.450;2023-05-29T08:58:16;26.70;99.90
6244;DHT22;3155;49.940;8.450;2023-05-29T09:00:46;26.80;99.90
6244;DHT22;3155;49.940;8.450;2023-05-29T09:03:13;26.80;99.90
6244;DHT22;3155;49.940;8.450;2023-05-29T09:05:41;26.60;99.90
6244;DHT22;3155;49.940;8.450;2023-05-29T09:08:08;26.60;99.90
6244;DHT22;3155;49.940;8.450;2023-05-29T09:10:36;26.90;99.90
6244;DHT22;3155;49.940;8.450;2023-05-29T09:13:19;26.70;99.90
6244;DHT22;3155;49.940;8.450;2023-05-29T09:15:46;26.50;99.90
6244;DHT22;3155;49.940;8.450;2023-05-29T09:18:16;26.10;99.90
6244;DHT22;3155;49.940;8.450;2023-05-29T09:20:43;26.00;99.90
6244;DHT22;3155;49.940;8.450;2023-05-29T09:23:10;26.10;99.90
6244;DHT22;3155;49.940;8.450;2023-05-29T09:25:41;26.50;99.90
6244;DHT22;3155;49.940;8.450;2023-05-29T09:28:11;26.50;99.90
6244;DHT22;3155;49.940;8.450;2023-05-29T09:30:43;26.80;99.90
6244;DHT22;3155;49.940;8.450;2023-05-29T09:33:11;26.60;99.90
6244;DHT22;3155;49.940;8.450;2023-05-29T09:38:10;26.80;99.90
6244;DHT22;3155;49.940;8.450;2023-05-29T09:40:43;26.80;99.90
6244;DHT22;3155;49.940;8.450;2023-05-29T09:43:14;26.80;99.90
6244;DHT22;3155;49.940;8.450;2023-05-29T09:45:46;27.00;99.90
6244;DHT22;3155;49.940;8.450;2023-05-29T09:48:18;27.00;99.90
6244;DHT22;3155;49.940;8.450;2023-05-29T09:50:45;27.20;99.90
6244;DHT22;3155;49.940;8.450;2023-05-29T09:53:25;27.60;99.90
6244;DHT22;3155;49.940;8.450;2023-05-29T09:55:54;27.50;99.90
6244;DHT22;3155;49.940;8.450;2023-05-29T09:58:22;27.30;99.90
6244;DHT22;3155;49.940;8.450;2023-05-29T10:00:50;27.50;99.90
6244;DHT22;3155;49.940;8.450;2023-05-29T10:03:20;27.80;99.90
6244;DHT22;3155;49.940;8.450;2023-05-29T10:05:55;27.20;99.90
6244;DHT22;3155;49.940;8.450;2023-05-29T10:08:26;26.90;99.90
6244;DHT22;3155;49.940;8.450;2023-05-29T10:11:03;27.20;99.90
6244;DHT22;3155;49.940;8.450;2023-05-29T10:13:36;27.50;99.90
6244;DHT22;3155;49.940;8.450;2023-05-29T10:16:08;27.90;99.90
6244;DHT22;3155;49.940;8.450;2023-05-29T10:18:47;28.00;99.90
6244;DHT22;3155;49.940;8.450;2023-05-29T10:21:16;28.20;99.90
6244;DHT22;3155;49.940;8.450;2023-05-29T10:23:47;27.80;99.90
6244;DHT22;3155;49.940;8.450;2023-05-29T10:26:19;28.10;99.90
6244;DHT22;3155;49.940;8.450;2023-05-29T10:29:09;28.30;99.90
6244;DHT22;3155;49.940;8.450;2023-05-29T10:32:12;28.30;99.90
6244;DHT22;3155;49.940;8.450;2023-05-29T10:35:12;28.70;99.90
6244;DHT22;3155;49.940;8.450;2023-05-29T10:38:21;28.90;99.90
6244;DHT22;3155;49.940;8.450;2023-05-29T10:40:48;29.20;99.90
6244;DHT22;3155;49.940;8.450;2023-05-29T10:43:33;29.00;99.90
6244;DHT22;3155;49.940;8.450;2023-05-29T10:46:01;29.00;99.90
6244;DHT22;3155;49.940;8.450;2023-05-29T10:48:41;29.00;99.90
6244;DHT22;3155;49.940;8.450;2023-05-29T10:51:24;29.10;99.90
6244;DHT22;3155;49.940;8.450;2023-05-29T10:53:51;28.80;99.90
6244;DHT22;3155;49.940;8.450;2023-05-29T10:56:38;28.60;99.90
6244;DHT22;3155;49.940;8.450;2023-05-29T10:59:09;28.80;99.90
6244;DHT22;3155;49.940;8.450;2023-05-29T11:01:38;28.80;99.90
6244;DHT22;3155;49.940;8.450;2023-05-29T11:06:42;28.60;99.90
6244;DHT22;3155;49.940;8.450;2023-05-29T11:09:37;28.30;99.90
6244;DHT22;3155;49.940;8.450;2023-05-29T11:12:25;28.00;99.90
6244;DHT22;3155;49.940;8.450;2023-05-29T11:15:07;27.90;99.90
6244;DHT22;3155;49.940;8.450;2023-05-29T11:20:09;28.30;99.90
6244;DHT22;3155;49.940;8.450;2023-05-29T11:25:25;28.50;99.90
6244;DHT22;3155;49.940;8.450;2023-05-29T11:27:52;28.20;99.90
6244;DHT22;3155;49.940;8.450;2023-05-29T11:30:19;28.30;99.90
6244;DHT22;3155;49.940;8.450;2023-05-29T11:32:47;28.10;99.90
6244;DHT22;3155;49.940;8.450;2023-05-29T11:35:14;28.00;99.90
6244;DHT22;3155;49.940;8.450;2023-05-29T11:37:44;28.00;99.90
6244;DHT22;3155;49.940;8.450;2023-05-29T11:40:14;28.20;99.90
6244;DHT22;3155;49.940;8.450;2023-05-29T11:42:47;28.20;99.90
6244;DHT22;3155;49.940;8.450;2023-05-29T11:45:18;28.20;99.90
6244;DHT22;3155;49.940;8.450;2023-05-29T11:47:57;28.30;99.90
6244;DHT22;3155;49.940;8.450;2023-05-29T11:50:27;28.10;99.90
6244;DHT22;3155;49.940;8.450;2023-05-29T11:52:57;28.10;99.90
6244;DHT22;3155;49.940;8.450;2023-05-29T11:55:25;28.00;99.90
6244;DHT22;3155;49.940;8.450;2023-05-29T11:57:57;28.00;99.90
6244;DHT22;3155;49.940;8.450;2023-05-29T12:00:27;27.90;99.90
6244;DHT22;3155;49.940;8.450;2023-05-29T12:02:58;27.90;99.90
6244;DHT22;3155;49.940;8.450;2023-05-29T12:05:25;28.10;99.90
6244;DHT22;3155;49.940;8.450;2023-05-29T12:08:00;28.20;99.90
6244;DHT22;3155;49.940;8.450;2023-05-29T12:10:28;28.20;99.90
6244;DHT22;3155;49.940;8.450;2023-05-29T12:12:59;27.90;99.90
6244;DHT22;3155;49.940;8.450;2023-05-29T12:15:27;28.20;99.90
6244;DHT22;3155;49.940;8.450;2023-05-29T12:17:55;28.10;99.90
6244;DHT22;3155;49.940;8.450;2023-05-29T12:20:25;28.30;99.90
6244;DHT22;3155;49.940;8.450;2023-05-29T12:23:01;27.80;99.90
6244;DHT22;3155;49.940;8.450;2023-05-29T12:25:28;27.90;99.90
6244;DHT22;3155;49.940;8.450;2023-05-29T12:27:56;27.70;99.90
6244;DHT22;3155;49.940;8.450;2023-05-29T12:30:24;27.90;99.90
6244;DHT22;3155;49.940;8.450;2023-05-29T12:32:59;28.00;99.90
6244;DHT22;3155;49.940;8.450;2023-05-29T12:35:28;28.20;99.90
6244;DHT22;3155;49.940;8.450;2023-05-29T12:38:04;27.80;99.90
6244;DHT22;3155;49.940;8.450;2023-05-29T12:40:33;28.10;99.90
6244;DHT22;3155;49.940;8.450;2023-05-29T12:43:07;27.80;99.90
6244;DHT22;3155;49.940;8.450;2023-05-29T12:45:37;28.20;99.90
6244;DHT22;3155;49.940;8.450;2023-05-29T12:48:07;28.10;99.90
6244;DHT22;3155;49.940;8.450;2023-05-29T12:50:36;28.00;99.90
6244;DHT22;3155;49.940;8.450;2023-05-29T12:53:09;28.00;99.90
6244;DHT22;3155;49.940;8.450;2023-05-29T12:55:41;28.10;99.90
6244;DHT22;3155;49.940;8.450;2023-05-29T12:58:09;28.30;99.90
6244;DHT22;3155;49.940;8.450;2023-05-29T13:00:38;27.80;99.90
6244;DHT22;3155;49.940;8.450;2023-05-29T13:03:07;28.10;99.90
6244;DHT22;3155;49.940;8.450;2023-05-29T13:05:37;28.20;99.90
6244;DHT22;3155;49.940;8.450;2023-05-29T13:08:06;28.10;99.90
6244;DHT22;3155;49.940;8.450;2023-05-29T13:10:36;28.30;99.90
6244;DHT22;3155;49.940;8.450;2023-05-29T13:13:04;28.60;99.90
6244;DHT22;3155;49.940;8.450;2023-05-29T13:15:31;28.70;99.90
6244;DHT22;3155;49.940;8.450;2023-05-29T13:18:00;28.70;99.90
6244;DHT22;3155;49.940;8.450;2023-05-29T13:20:29;29.00;99.90
6244;DHT22;3155;49.940;8.450;2023-05-29T13:22:57;29.60;99.90
6244;DHT22;3155;49.940;8.450;2023-05-29T13:25:24;29.90;99.90
6244;DHT22;3155;49.940;8.450;2023-05-29T13:27:52;30.20;99.90
6244;DHT22;3155;49.940;8.450;2023-05-29T13:30:19;30.30;99.90
6244;DHT22;3155;49.940;8.450;2023-05-29T13:32:46;30.40;99.90
6244;DHT22;3155;49.940;8.450;2023-05-29T13:35:15;30.40;99.90
6244;DHT22;3155;49.940;8.450;2023-05-29T13:37:43;30.80;99.90
6244;DHT22;3155;49.940;8.450;2023-05-29T13:40:13;30.70;99.90
6244;DHT22;3155;49.940;8.450;2023-05-29T13:42:40;30.70;99.90
6244;DHT22;3155;49.940;8.450;2023-05-29T13:45:11;31.00;99.90
6244;DHT22;3155;49.940;8.450;2023-05-29T13:47:40;31.10;99.90
6244;DHT22;3155;49.940;8.450;2023-05-29T13:50:07;31.00;99.90
6244;DHT22;3155;49.940;8.450;2023-05-29T13:52:38;30.60;99.90
6244;DHT22;3155;49.940;8.450;2023-05-29T13:55:28;30.30;99.90
6244;DHT22;3155;49.940;8.450;2023-05-29T13:57:55;30.40;99.90
6244;DHT22;3155;49.940;8.450;2023-05-29T14:00:24;30.40;99.90
6244;DHT22;3155;49.940;8.450;2023-05-29T14:02:51;30.30;99.90
6244;DHT22;3155;49.940;8.450;2023-05-29T14:05:17;30.60;99.90
6244;DHT22;3155;49.940;8.450;2023-05-29T14:07:45;31.00;99.90
6244;DHT22;3155;49.940;8.450;2023-05-29T14:10:15;31.10;99.90
6244;DHT22;3155;49.940;8.450;2023-05-29T14:12:45;31.20;99.90
6244;DHT22;3155;49.940;8.450;2023-05-29T14:15:14;31.30;99.90
6244;DHT22;3155;49.940;8.450;2023-05-29T14:17:46;31.40;99.90
6244;DHT22;3155;49.940;8.450;2023-05-29T14:20:13;31.40;99.90
6244;DHT22;3155;49.940;8.450;2023-05-29T14:22:39;31.30;99.90
6244;DHT22;3155;49.940;8.450;2023-05-29T14:25:06;30.80;99.90
6244;DHT22;3155;49.940;8.450;2023-05-29T14:27:34;31.00;99.90
6244;DHT22;3155;49.940;8.450;2023-05-29T14:30:03;31.30;99.90
6244;DHT22;3155;49.940;8.450;2023-05-29T14:32:32;31.30;99.90
6244;DHT22;3155;49.940;8.450;2023-05-29T14:35:02;31.50;99.90
6244;DHT22;3155;49.940;8.450;2023-05-29T14:37:29;31.90;99.90
6244;DHT22;3155;49.940;8.450;2023-05-29T14:39:56;31.10;99.90
6244;DHT22;3155;49.940;8.450;2023-05-29T14:42:22;30.40;99.90
6244;DHT22;3155;49.940;8.450;2023-05-29T14:44:52;30.50;99.90
6244;DHT22;3155;49.940;8.450;2023-05-29T14:47:18;31.00;99.90
6244;DHT22;3155;49.940;8.450;2023-05-29T14:49:47;31.30;99.90
6244;DHT22;3155;49.940;8.450;2023-05-29T14:52:14;31.20;99.90
6244;DHT22;3155;49.940;8.450;2023-05-29T14:54:42;31.80;99.90
6244;DHT22;3155;49.940;8.450;2023-05-29T14:57:09;32.20;99.90
6244;DHT22;3155;49.940;8.450;2023-05-29T14:59:35;32.50;99.90
6244;DHT22;3155;49.940;8.450;2023-05-29T15:02:02;32.40;99.90
6244;DHT22;3155;49.940;8.450;2023-05-29T15:04:29;31.90;99.90
6244;DHT22;3155;49.940;8.450;2023-05-29T15:06:56;31.50;99.90
6244;DHT22;3155;49.940;8.450;2023-05-29T15:09:32;31.60;99.90
6244;DHT22;3155;49.940;8.450;2023-05-29T15:11:59;31.60;99.90
6244;DHT22;3155;49.940;8.450;2023-05-29T15:14:29;31.70;99.90
6244;DHT22;3155;49.940;8.450;2023-05-29T15:16:58;31.70;99.90
6244;DHT22;3155;49.940;8.450;2023-05-29T15:19:26;32.20;99.90
6244;DHT22;3155;49.940;8.450;2023-05-29T15:21:54;32.60;99.90
6244;DHT22;3155;49.940;8.450;2023-05-29T15:24:20;32.10;99.90
6244;DHT22;3155;49.940;8.450;2023-05-29T15:26:47;31.60;99.90
6244;DHT22;3155;49.940;8.450;2023-05-29T15:29:14;30.80;99.90
6244;DHT22;3155;49.940;8.450;2023-05-29T15:31:43;30.60;99.90
6244;DHT22;3155;49.940;8.450;2023-05-29T15:34:10;30.60;99.90
6244;DHT22;3155;49.940;8.450;2023-05-29T15:36:41;31.50;99.90
6244;DHT22;3155;49.940;8.450;2023-05-29T15:39:09;32.10;99.90
6244;DHT22;3155;49.940;8.450;2023-05-29T15:41:36;32.00;99.90
6244;DHT22;3155;49.940;8.450;2023-05-29T15:44:02;31.80;99.90
6244;DHT22;3155;49.940;8.450;2023-05-29T15:46:30;31.50;99.90
6244;DHT22;3155;49.940;8.450;2023-05-29T15:48:57;31.30;99.90
6244;DHT22;3155;49.940;8.450;2023-05-29T15:51:24;30.90;99.90
6244;DHT22;3155;49.940;8.450;2023-05-29T15:53:53;30.40;99.90
6244;DHT22;3155;49.940;8.450;2023-05-29T15:56:19;30.10;99.90
6244;DHT22;3155;49.940;8.450;2023-05-29T15:58:53;29.50;99.90
6244;DHT22;3155;49.940;8.450;2023-05-29T16:01:25;28.60;99.90
6244;DHT22;3155;49.940;8.450;2023-05-29T16:03:52;27.70;99.90
6244;DHT22;3155;49.940;8.450;2023-05-29T16:06:18;26.90;99.90
6244;DHT22;3155;49.940;8.450;2023-05-29T16:08:45;26.40;99.90
6244;DHT22;3155;49.940;8.450;2023-05-29T16:11:12;26.30;99.90
6244;DHT22;3155;49.940;8.450;2023-05-29T16:13:39;26.20;99.90
6244;DHT22;3155;49.940;8.450;2023-05-29T16:16:08;26.00;99.90
6244;DHT22;3155;49.940;8.450;2023-05-29T16:18:35;25.80;99.90
6244;DHT22;3155;49.940;8.450;2023-05-29T16:21:05;25.80;99.90
6244;DHT22;3155;49.940;8.450;2023-05-29T16:23:37;25.60;99.90
6244;DHT22;3155;49.940;8.450;2023-05-29T16:26:04;25.60;99.90
6244;DHT22;3155;49.940;8.450;2023-05-29T16:28:33;25.60;99.90